sensor_id;sensor_type;location;lat;lon;timestamp;temperature;humidity
19646;DHT22;9971;52.446;13.452;2023-08-20T00:04:18;30.30;99.90
19646;DHT22;9971;52.446;13.452;2023-08-20T00:09:21;30.30;99.90
19646;DHT22;9971;52.446;13.452;2023-08-20T00:14:51;30.30;99.90
19646;DHT22;9971;52.446;13.452;2023-08-20T00:19:25;30.30;99.90
19646;DHT22;9971;52.446;13.452;2023-08-20T00:24:28;30.30;99.90
19646;DHT22;9971;52.446;13.452;2023-08-20T00:29:30;30.30;99.90
19646;DHT22;9971;52.446;13.452;2023-08-20T00:34:33;30.30;99.90
19646;DHT22;9971;52.446;13.452;2023-08-20T00:39:35;30.30;99.90
19646;DHT22;9971;52.446;13.452;2023-08-20T00:44:38;30.30;99.90
19646;DHT22;9971;52.446;13.452;2023-08-20T00:49:40;30.30;99.90
19646;DHT22;9971;52.446;13.452;2023-08-20T00:54:43;30.30;99.90
19646;DHT22;9971;52.446;13.452;2023-08-20T00:59:44;30.30;99.90
19646;DHT22;9971;52.446;13.452;2023-08-20T01:04:47;30.30;99.90
19646;DHT22;9971;52.446;13.452;2023-08-20T01:09:50;30.30;99.90
19646;DHT22;9971;52.446;13.452;2023-08-20T01:14:52;30.30;99.90
19646;DHT22;9971;52.446;13.452;2023-08-20T01:19:54;30.30;99.90
19646;DHT22;9971;52.446;13.452;2023-08-20T01:25:02;30.30;99.90
19646;DHT22;9971;52.446;13.452;2023-08-20T01:30:01;30.20;99.90
19646;DHT22;9971;52.446;13.452;2023-08-20T01:35:04;30.30;99.90
19646;DHT22;9971;52.446;13.452;2023-08-20T01:40:07;30.30;99.90
19646;DHT22;9971;52.446;13.452;2023-08-20T01:45:10;30.30;99.90
19646;DHT22;9971;52.446;13.452;2023-08-20T01:50:12;30.30;99.90
19646;DHT22;9971;52.446;13.452;2023-08-20T01:55:15;30.30;99.90
19646;DHT22;9971;52.446;13.452;2023-08-20T02:00:17;30.20;99.90
19646;DHT22;9971;52.446;13.452;2023-08-20T02:05:20;30.20;99.90
19646;DHT22;9971;52.446;13.452;2023-08-20T02:10:22;30.20;99.90
19646;DHT22;9971;52.446;13.452;2023-08-20T02:15:25;30.20;99.90
19646;DHT22;9971;52.446;13.452;2023-08-20T02:20:27;30.20;99.90
19646;DHT22;9971;52.446;13.452;2023-08-20T02:25:30;30.20;99.90
19646;DHT22;9971;52.446;13.452;2023-08-20T02:30:37;30.20;99.90
19646;DHT22;9971;52.446;13.452;2023-08-20T02:35:35;30.20;99.90
19646;DHT22;9971;52.446;13.452;2023-08-20T02:40:41;30.20;99.90
19646;DHT22;9971;52.446;13.452;2023-08-20T02:45:43;30.10;99.90
19646;DHT22;9971;52.446;13.452;2023-08-20T02:50:45;30.20;99.90
19646;DHT22;9971;52.446;13.452;2023-08-20T02:55:47;30.20;99.90
19646;DHT22;9971;52.446;13.452;2023-08-20T03:00:50;30.20;99.90
19646;DHT22;9971;52.446;13.452;2023-08-20T03:05:52;30.20;99.90
19646;DHT22;9971;52.446;13.452;2023-08-20T03:10:55;30.20;99.90
19646;DHT22;9971;52.446;13.452;2023-08-20T03:15:57;30.10;99.90
19646;DHT22;9971;52.446;13.452;2023-08-20T03:20:59;30.20;99.90
19646;DHT22;9971;52.446;13.452;2023-08-20T03:26:02;30.20;99.90
19646;DHT22;9971;52.446;13.452;2023-08-20T03:31:04;30.10;99.90
19646;DHT22;9971;52.446;13.452;2023-08-20T03:36:07;30.10;99.90
19646;DHT22;9971;52.446;13.452;2023-08-20T03:41:09;30.10;99.90
19646;DHT22;9971;52.446;13.452;2023-08-20T03:46:11;30.00;99.90
19646;DHT22;9971;52.446;13.452;2023-08-20T03:51:14;30.00;99.90
19646;DHT22;9971;52.446;13.452;2023-08-20T03:56:16;30.00;99.90
19646;DHT22;9971;52.446;13.452;2023-08-20T04:01:19;30.00;99.90
19646;DHT22;9971;52.446;13.452;2023-08-20T04:06:21;30.00;99.90
19646;DHT22;9971;52.446;13.452;2023-08-20T04:11:24;30.00;99.90
19646;DHT22;9971;52.446;13.452;2023-08-20T04:16:27;30.10;99.90
19646;DHT22;9971;52.446;13.452;2023-08-20T04:21:29;30.10;99.90
19646;DHT22;9971;52.446;13.452;2023-08-20T04:26:31;30.10;99.90
19646;DHT22;9971;52.446;13.452;2023-08-20T04:31:33;30.10;99.90
19646;DHT22;9971;52.446;13.452;2023-08-20T04:36:36;30.10;99.90
19646;DHT22;9971;52.446;13.452;2023-08-20T04:41:39;30.10;99.90
19646;DHT22;9971;52.446;13.452;2023-08-20T04:46:42;30.10;99.90
19646;DHT22;9971;52.446;13.452;2023-08-20T04:51:44;30.10;99.90
19646;DHT22;9971;52.446;13.452;2023-08-20T04:56:46;30.10;99.90
19646;DHT22;9971;52.446;13.452;2023-08-20T05:01:49;30.10;99.90
19646;DHT22;9971;52.446;13.452;2023-08-20T05:06:51;30.10;99.90
19646;DHT22;9971;52.446;13.452;2023-08-20T05:11:53;30.10;99.90
19646;DHT22;9971;52.446;13.452;2023-08-20T05:16:56;30.10;99.90
19646;DHT22;9971;52.446;13.452;2023-08-20T05:21:58;30.10;99.90
19646;DHT22;9971;52.446;13.452;2023-08-20T05:27:04;30.00;99.90
19646;DHT22;9971;52.446;13.452;2023-08-20T05:32:06;30.00;99.90
19646;DHT22;9971;52.446;13.452;2023-08-20T05:37:08;30.00;99.90
19646;DHT22;9971;52.446;13.452;2023-08-20T05:42:10;29.90;99.90
19646;DHT22;9971;52.446;13.452;2023-08-20T05:47:12;29.90;99.90
19646;DHT22;9971;52.446;13.452;2023-08-20T05:52:15;29.90;99.90
19646;DHT22;9971;52.446;13.452;2023-08-20T05:57:17;29.90;99.90
19646;DHT22;9971;52.446;13.452;2023-08-20T06:02:20;29.80;99.90
19646;DHT22;9971;52.446;13.452;2023-08-20T06:07:22;29.80;99.90
19646;DHT22;9971;52.446;13.452;2023-08-20T06:12:25;29.80;99.90
19646;DHT22;9971;52.446;13.452;2023-08-20T06:17:27;29.80;99.90
19646;DHT22;9971;52.446;13.452;2023-08-20T06:22:30;29.80;99.90
19646;DHT22;9971;52.446;13.452;2023-08-20T06:27:33;29.70;99.90
19646;DHT22;9971;52.446;13.452;2023-08-20T06:32:35;29.70;99.90
19646;DHT22;9971;52.446;13.452;2023-08-20T06:37:38;29.80;99.90
19646;DHT22;9971;52.446;13.452;2023-08-20T06:42:41;29.70;99.90
19646;DHT22;9971;52.446;13.452;2023-08-20T06:47:43;29.70;99.90
19646;DHT22;9971;52.446;13.452;2023-08-20T06:52:46;29.80;99.90
19646;DHT22;9971;52.446;13.452;2023-08-20T06:57:48;29.80;99.90
19646;DHT22;9971;52.446;13.452;2023-08-20T07:02:51;29.80;99.90
19646;DHT22;9971;52.446;13.452;2023-08-20T07:07:53;29.80;99.90
19646;DHT22;9971;52.446;13.452;2023-08-20T07:12:56;29.70;99.90
19646;DHT22;9971;52.446;13.452;2023-08-20T07:17:58;29.60;99.90
19646;DHT22;9971;52.446;13.452;2023-08-20T07:23:01;29.60;99.90
19646;DHT22;9971;52.446;13.452;2023-08-20T07:28:04;29.60;99.90
19646;DHT22;9971;52.446;13.452;2023-08-20T07:33:06;29.50;99.90
19646;DHT22;9971;52.446;13.452;2023-08-20T07:38:08;29.50;99.90
19646;DHT22;9971;52.446;13.452;2023-08-20T07:43:10;29.40;99.90
19646;DHT22;9971;52.446;13.452;2023-08-20T07:48:13;29.50;99.90
19646;DHT22;9971;52.446;13.452;2023-08-20T07:53:15;29.40;99.90
19646;DHT22;9971;52.446;13.452;2023-08-20T07:58:18;29.40;99.90
19646;DHT22;9971;52.446;13.452;2023-08-20T08:03:20;29.40;99.90
19646;DHT22;9971;52.446;13.452;2023-08-20T08:08:22;29.40;99.90
19646;DHT22;9971;52.446;13.452;2023-08-20T08:13:25;29.30;99.90
19646;DHT22;9971;52.446;13.452;2023-08-20T08:18:27;29.30;99.90
19646;DHT22;9971;52.446;13.452;2023-08-20T08:23:29;29.40;99.90
19646;DHT22;9971;52.446;13.452;2023-08-20T08:28:32;29.40;99.90
19646;DHT22;9971;52.446;13.452;2023-08-20T08:33:34;29.40;99.90
19646;DHT22;9971;52.446;13.452;2023-08-20T08:38:37;29.50;99.90
19646;DHT22;9971;52.446;13.452;2023-08-20T08:43:39;29.50;99.90
19646;DHT22;9971;52.446;13.452;2023-08-20T08:48:42;29.50;99.90
19646;DHT22;9971;52.446;13.452;2023-08-20T08:53:43;29.60;99.90
19646;DHT22;9971;52.446;13.452;2023-08-20T08:58:45;29.60;99.90
19646;DHT22;9971;52.446;13.452;2023-08-20T09:03:47;29.60;99.90
19646;DHT22;9971;52.446;13.452;2023-08-20T09:08:50;29.60;99.90
19646;DHT22;9971;52.446;13.452;2023-08-20T09:13:52;29.60;99.90
19646;DHT22;9971;52.446;13.452;2023-08-20T09:18:54;29.60;99.90
19646;DHT22;9971;52.446;13.452;2023-08-20T09:23:57;29.60;99.90
19646;DHT22;9971;52.446;13.452;2023-08-20T09:28:59;29.70;99.90
19646;DHT22;9971;52.446;13.452;2023-08-20T09:34:01;29.70;99.90
19646;DHT22;9971;52.446;13.452;2023-08-20T09:39:04;29.70;99.90
19646;DHT22;9971;52.446;13.452;2023-08-20T09:44:06;29.70;99.90
19646;DHT22;9971;52.446;13.452;2023-08-20T09:49:08;29.70;99.90
19646;DHT22;9971;52.446;13.452;2023-08-20T09:54:14;29.70;99.90
19646;DHT22;9971;52.446;13.452;2023-08-20T09:59:15;29.80;99.90
19646;DHT22;9971;52.446;13.452;2023-08-20T10:04:17;29.80;99.90
19646;DHT22;9971;52.446;13.452;2023-08-20T10:09:19;29.80;99.90
19646;DHT22;9971;52.446;13.452;2023-08-20T10:14:21;29.80;99.90
19646;DHT22;9971;52.446;13.452;2023-08-20T10:19:23;29.80;99.90
19646;DHT22;9971;52.446;13.452;2023-08-20T10:24:26;29.80;99.90
19646;DHT22;9971;52.446;13.452;2023-08-20T10:29:37;29.80;99.90
19646;DHT22;9971;52.446;13.452;2023-08-20T10:34:39;29.80;99.90
19646;DHT22;9971;52.446;13.452;2023-08-20T10:39:40;29.80;99.90
19646;DHT22;9971;52.446;13.452;2023-08-20T10:49:56;29.80;99.90
19646;DHT22;9971;52.446;13.452;2023-08-20T10:54:58;29.90;99.90
19646;DHT22;9971;52.446;13.452;2023-08-20T11:00:01;29.90;99.90
19646;DHT22;9971;52.446;13.452;2023-08-20T11:05:03;29.90;99.90
19646;DHT22;9971;52.446;13.452;2023-08-20T11:10:05;29.90;99.90
19646;DHT22;9971;52.446;13.452;2023-08-20T11:15:08;30.00;99.90
19646;DHT22;9971;52.446;13.452;2023-08-20T11:20:11;29.90;99.90
19646;DHT22;9971;52.446;13.452;2023-08-20T11:25:13;30.00;99.90
19646;DHT22;9971;52.446;13.452;2023-08-20T11:30:15;30.00;99.90
19646;DHT22;9971;52.446;13.452;2023-08-20T11:35:18;30.00;99.90
19646;DHT22;9971;52.446;13.452;2023-08-20T11:40:20;30.00;99.90
19646;DHT22;9971;52.446;13.452;2023-08-20T11:45:23;30.00;99.90
19646;DHT22;9971;52.446;13.452;2023-08-20T11:50:25;30.00;99.90
19646;DHT22;9971;52.446;13.452;2023-08-20T11:55:29;30.00;99.90
19646;DHT22;9971;52.446;13.452;2023-08-20T12:00:30;30.00;99.90
19646;DHT22;9971;52.446;13.452;2023-08-20T12:05:31;30.00;99.90
19646;DHT22;9971;52.446;13.452;2023-08-20T12:10:34;30.10;99.90
19646;DHT22;9971;52.446;13.452;2023-08-20T12:15:36;30.10;99.90
19646;DHT22;9971;52.446;13.452;2023-08-20T12:20:39;30.10;99.90
19646;DHT22;9971;52.446;13.452;2023-08-20T12:25:42;30.10;99.90
19646;DHT22;9971;52.446;13.452;2023-08-20T12:30:44;30.10;99.90
19646;DHT22;9971;52.446;13.452;2023-08-20T12:35:46;30.20;99.90
19646;DHT22;9971;52.446;13.452;2023-08-20T12:40:48;30.20;99.90
19646;DHT22;9971;52.446;13.452;2023-08-20T12:45:51;30.20;99.90
19646;DHT22;9971;52.446;13.452;2023-08-20T12:50:53;30.20;99.90
19646;DHT22;9971;52.446;13.452;2023-08-20T12:55:56;30.20;99.90
19646;DHT22;9971;52.446;13.452;2023-08-20T13:00:58;30.20;99.90
19646;DHT22;9971;52.446;13.452;2023-08-20T13:06:01;30.20;99.90
19646;DHT22;9971;52.446;13.452;2023-08-20T13:11:03;30.20;99.90
19646;DHT22;9971;52.446;13.452;2023-08-20T13:16:05;30.30;99.90
19646;DHT22;9971;52.446;13.452;2023-08-20T13:21:08;30.30;99.90
19646;DHT22;9971;52.446;13.452;2023-08-20T13:26:10;30.30;99.90
19646;DHT22;9971;52.446;13.452;2023-08-20T13:31:12;30.30;99.90
19646;DHT22;9971;52.446;13.452;2023-08-20T13:36:15;30.30;99.90
19646;DHT22;9971;52.446;13.452;2023-08-20T13:41:17;30.30;98.20
19646;DHT22;9971;52.446;13.452;2023-08-20T13:46:19;30.30;97.20
19646;DHT22;9971;52.446;13.452;2023-08-20T13:51:25;30.30;96.30
19646;DHT22;9971;52.446;13.452;2023-08-20T13:56:27;30.30;93.50
19646;DHT22;9971;52.446;13.452;2023-08-20T14:01:30;30.30;92.90
19646;DHT22;9971;52.446;13.452;2023-08-20T14:06:33;30.40;93.60
19646;DHT22;9971;52.446;13.452;2023-08-20T14:11:35;30.30;93.90
19646;DHT22;9971;52.446;13.452;2023-08-20T14:16:37;30.30;94.30
19646;DHT22;9971;52.446;13.452;2023-08-20T14:21:39;30.30;94.90
19646;DHT22;9971;52.446;13.452;2023-08-20T14:26:42;30.30;95.10
19646;DHT22;9971;52.446;13.452;2023-08-20T14:31:45;30.30;95.90
19646;DHT22;9971;52.446;13.452;2023-08-20T14:36:47;30.30;96.20
19646;DHT22;9971;52.446;13.452;2023-08-20T14:41:49;30.40;96.00
19646;DHT22;9971;52.446;13.452;2023-08-20T14:46:52;30.30;96.00
19646;DHT22;9971;52.446;13.452;2023-08-20T14:51:54;30.30;94.50
19646;DHT22;9971;52.446;13.452;2023-08-20T14:56:57;30.30;94.00
19646;DHT22;9971;52.446;13.452;2023-08-20T15:01:59;30.30;91.90
19646;DHT22;9971;52.446;13.452;2023-08-20T15:07:01;30.30;91.40
19646;DHT22;9971;52.446;13.452;2023-08-20T15:12:04;30.30;91.00
19646;DHT22;9971;52.446;13.452;2023-08-20T15:17:07;30.30;88.80
19646;DHT22;9971;52.446;13.452;2023-08-20T15:22:09;30.30;87.60
19646;DHT22;9971;52.446;13.452;2023-08-20T15:27:12;30.30;86.70
19646;DHT22;9971;52.446;13.452;2023-08-20T15:32:15;30.30;85.30
19646;DHT22;9971;52.446;13.452;2023-08-20T15:37:17;30.30;83.80
19646;DHT22;9971;52.446;13.452;2023-08-20T15:42:20;30.30;84.70
19646;DHT22;9971;52.446;13.452;2023-08-20T15:47:22;30.30;83.80
19646;DHT22;9971;52.446;13.452;2023-08-20T15:52:24;30.30;84.70
19646;DHT22;9971;52.446;13.452;2023-08-20T15:57:27;30.30;85.30
19646;DHT22;9971;52.446;13.452;2023-08-20T16:02:29;30.30;82.60
19646;DHT22;9971;52.446;13.452;2023-08-20T16:07:32;30.30;81.60
19646;DHT22;9971;52.446;13.452;2023-08-20T16:12:34;30.30;82.70
19646;DHT22;9971;52.446;13.452;2023-08-20T16:17:36;30.40;83.80
19646;DHT22;9971;52.446;13.452;2023-08-20T16:22:39;30.40;84.10
19646;DHT22;9971;52.446;13.452;2023-08-20T16:27:41;30.40;84.20
19646;DHT22;9971;52.446;13.452;2023-08-20T16:32:44;30.40;84.20
19646;DHT22;9971;52.446;13.452;2023-08-20T16:37:46;30.40;83.10
19646;DHT22;9971;52.446;13.452;2023-08-20T16:42:49;30.40;82.30
19646;DHT22;9971;52.446;13.452;2023-08-20T16:47:51;30.40;82.60
19646;DHT22;9971;52.446;13.452;2023-08-20T16:52:53;30.40;82.70
19646;DHT22;9971;52.446;13.452;2023-08-20T16:57:56;30.40;83.50
19646;DHT22;9971;52.446;13.452;2023-08-20T17:02:59;30.40;83.50
19646;DHT22;9971;52.446;13.452;2023-08-20T17:08:02;30.50;84.00
19646;DHT22;9971;52.446;13.452;2023-08-20T17:13:04;30.40;83.40
19646;DHT22;9971;52.446;13.452;2023-08-20T17:18:06;30.40;83.90
19646;DHT22;9971;52.446;13.452;2023-08-20T17:23:09;30.50;84.50
19646;DHT22;9971;52.446;13.452;2023-08-20T17:28:12;30.50;86.20
19646;DHT22;9971;52.446;13.452;2023-08-20T17:33:15;30.50;87.30
19646;DHT22;9971;52.446;13.452;2023-08-20T17:38:17;30.50;88.40
19646;DHT22;9971;52.446;13.452;2023-08-20T17:43:19;30.50;89.20
19646;DHT22;9971;52.446;13.452;2023-08-20T17:48:23;30.40;89.60
19646;DHT22;9971;52.446;13.452;2023-08-20T17:53:25;30.50;90.00
19646;DHT22;9971;52.446;13.452;2023-08-20T17:58:27;30.40;90.10
19646;DHT22;9971;52.446;13.452;2023-08-20T18:03:30;30.50;90.20
19646;DHT22;9971;52.446;13.452;2023-08-20T18:08:32;30.50;90.30
19646;DHT22;9971;52.446;13.452;2023-08-20T18:13:34;30.50;90.50
19646;DHT22;9971;52.446;13.452;2023-08-20T18:18:37;30.50;90.60
19646;DHT22;9971;52.446;13.452;2023-08-20T18:23:39;30.50;90.60
19646;DHT22;9971;52.446;13.452;2023-08-20T18:28:41;30.50;90.50
19646;DHT22;9971;52.446;13.452;2023-08-20T18:33:43;30.60;90.60
19646;DHT22;9971;52.446;13.452;2023-08-20T18:38:50;30.50;90.60
19646;DHT22;9971;52.446;13.452;2023-08-20T18:43:54;30.60;90.70
19646;DHT22;9971;52.446;13.452;2023-08-20T18:49:00;30.60;90.60
19646;DHT22;9971;52.446;13.452;2023-08-20T18:54:02;30.60;90.60
19646;DHT22;9971;52.446;13.452;2023-08-20T18:59:04;30.60;90.60
19646;DHT22;9971;52.446;13.452;2023-08-20T19:04:06;30.60;90.70
19646;DHT22;9971;52.446;13.452;2023-08-20T19:09:09;30.70;90.80
19646;DHT22;9971;52.446;13.452;2023-08-20T19:14:12;30.70;90.70
19646;DHT22;9971;52.446;13.452;2023-08-20T19:19:14;30.70;90.50
19646;DHT22;9971;52.446;13.452;2023-08-20T19:24:17;30.70;90.60
19646;DHT22;9971;52.446;13.452;2023-08-20T19:29:20;30.70;91.20
19646;DHT22;9971;52.446;13.452;2023-08-20T19:34:22;30.70;91.80
19646;DHT22;9971;52.446;13.452;2023-08-20T19:39:25;30.80;92.80
19646;DHT22;9971;52.446;13.452;2023-08-20T19:44:27;30.80;93.90
19646;DHT22;9971;52.446;13.452;2023-08-20T19:49:29;30.80;95.20
19646;DHT22;9971;52.446;13.452;2023-08-20T19:54:32;30.90;96.80
19646;DHT22;9971;52.446;13.452;2023-08-20T19:59:34;30.90;98.30
19646;DHT22;9971;52.446;13.452;2023-08-20T20:04:37;30.80;99.80
19646;DHT22;9971;52.446;13.452;2023-08-20T20:09:39;30.90;99.90
19646;DHT22;9971;52.446;13.452;2023-08-20T20:14:41;30.90;99.90
19646;DHT22;9971;52.446;13.452;2023-08-20T20:19:44;30.90;99.90
19646;DHT22;9971;52.446;13.452;2023-08-20T20:24:46;30.90;99.90
19646;DHT22;9971;52.446;13.452;2023-08-20T20:29:48;30.90;99.90
19646;DHT22;9971;52.446;13.452;2023-08-20T20:34:50;31.00;99.90
19646;DHT22;9971;52.446;13.452;2023-08-20T20:39:53;31.00;99.90
19646;DHT22;9971;52.446;13.452;2023-08-20T20:44:55;31.00;99.90
19646;DHT22;9971;52.446;13.452;2023-08-20T20:49:58;31.00;99.90
19646;DHT22;9971;52.446;13.452;2023-08-20T21:05:57;31.10;99.90
19646;DHT22;9971;52.446;13.452;2023-08-20T21:11:00;31.10;99.90
19646;DHT22;9971;52.446;13.452;2023-08-20T21:16:02;31.10;99.90
19646;DHT22;9971;52.446;13.452;2023-08-20T21:21:05;31.10;99.90
19646;DHT22;9971;52.446;13.452;2023-08-20T21:26:09;31.10;99.90
19646;DHT22;9971;52.446;13.452;2023-08-20T21:31:10;31.10;99.90
19646;DHT22;9971;52.446;13.452;2023-08-20T21:36:12;31.10;99.90
19646;DHT22;9971;52.446;13.452;2023-08-20T21:41:14;31.10;99.90
19646;DHT22;9971;52.446;13.452;2023-08-20T21:46:17;31.10;99.90
19646;DHT22;9971;52.446;13.452;2023-08-20T21:51:19;31.10;99.90
19646;DHT22;9971;52.446;13.452;2023-08-20T21:56:21;31.10;99.90
19646;DHT22;9971;52.446;13.452;2023-08-20T22:01:25;31.10;99.90
19646;DHT22;9971;52.446;13.452;2023-08-20T22:06:27;31.20;99.90
19646;DHT22;9971;52.446;13.452;2023-08-20T22:11:30;31.10;99.90
19646;DHT22;9971;52.446;13.452;2023-08-20T22:16:33;31.20;99.90
19646;DHT22;9971;52.446;13.452;2023-08-20T22:21:36;31.20;99.90
19646;DHT22;9971;52.446;13.452;2023-08-20T22:26:38;31.20;99.90
19646;DHT22;9971;52.446;13.452;2023-08-20T22:31:41;31.20;99.90
19646;DHT22;9971;52.446;13.452;2023-08-20T22:58:10;31.20;99.90
19646;DHT22;9971;52.446;13.452;2023-08-20T23:03:13;31.20;99.90
19646;DHT22;9971;52.446;13.452;2023-08-20T23:08:15;31.20;99.90
19646;DHT22;9971;52.446;13.452;2023-08-20T23:13:21;31.20;99.90
19646;DHT22;9971;52.446;13.452;2023-08-20T23:18:23;31.20;99.90
19646;DHT22;9971;52.446;13.452;2023-08-20T23:23:26;31.20;99.90
19646;DHT22;9971;52.446;13.452;2023-08-20T23:28:29;31.20;99.90
19646;DHT22;9971;52.446;13.452;2023-08-20T23:39:03;31.20;99.90
19646;DHT22;9971;52.446;13.452;2023-08-20T23:44:05;31.20;99.90
19646;DHT22;9971;52.446;13.452;2023-08-20T23:49:09;31.20;99.90
19646;DHT22;9971;52.446;13.452;2023-08-20T23:54:12;31.20;99.90
19646;DHT22;9971;52.446;13.452;2023-08-20T23:59:14;31.10;99.90
